Terminal Aerodrome Forecast
Issued by NWS Denver/Boulder, CO

Home | Current Version | Previous Version | Text Only | Print | Product List | Glossary On
Versions: 1 2 3 4 5 6 7 8 9 10 11 12 13 14 15 16 17 18 19 20 21 22 23 24 25 26 27 28 29 30 31 32 33 34 35 36 37 38 39 40 41
000
FTUS45 KBOU 260015 AAA
TAFDEN
TAF AMD
KDEN 260015Z 2600/2706 12012KT P6SM SCT070 BKN120
     FM260500 VRB06KT P6SM VCSH SCT050 BKN080
     FM260600 17008KT P6SM -SHRA SCT020 BKN050
     FM261000 19010KT P6SM SCT020 BKN050 PROB30 2620/2702 VRB15G25KT
      P6SM -TSRA SCT050CB BKN120=

USA.gov is the U.S. government's official web portal to all federal, state and local government web resources and services.